Time;durP1;ratioP1;P1;durP2;ratioP2;P2;SDS_P1;SDS_P2;PMS_P1;PMS_P2;Temp;Humidity;BMP_temperature;BMP_pressure;BME280_temperature;BME280_humidity;BME280_pressure;Samples;Min_cycle;Max_cycle;Signal;HPM_P1;HPM_P2
2022/01/03 00:00:52;;;;;;;26.73;6.82;;;29.00;74.20;;;;;;5064396;28;20101;-52
2022/01/03 00:03:20;;;;;;;28.23;6.88;;;29.00;74.20;;;;;;5064228;28;20025;-47
2022/01/03 00:05:47;;;;;;;22.00;6.40;;;29.00;74.00;;;;;;5064113;28;20088;-48
2022/01/03 00:08:13;;;;;;;20.05;5.82;;;29.00;74.00;;;;;;5064361;28;20088;-48
2022/01/03 00:10:41;;;;;;;21.67;6.03;;;29.00;73.90;;;;;;5064180;28;20013;-45
2022/01/03 00:13:08;;;;;;;20.90;5.63;;;29.00;73.90;;;;;;5064188;28;20009;-48
2022/01/03 00:15:34;;;;;;;27.42;5.95;;;29.00;73.80;;;;;;5064221;28;20021;-45
2022/01/03 00:18:04;;;;;;;21.38;5.65;;;28.90;73.70;;;;;;5063860;28;20095;-42
2022/01/03 00:20:30;;;;;;;15.50;5.07;;;28.90;73.70;;;;;;5064075;28;20039;-49
2022/01/03 00:23:02;;;;;;;16.42;5.00;;;28.90;73.60;;;;;;5063900;28;20021;-45
2022/01/03 00:25:29;;;;;;;14.65;4.65;;;28.90;73.50;;;;;;5064071;28;20036;-44
2022/01/03 00:28:24;;;;;;;22.67;5.03;;;28.90;73.50;;;;;;5057526;28;20253;-49
2022/01/03 00:30:55;;;;;;;26.70;4.85;;;28.90;73.40;;;;;;5062212;28;20057;-49
2022/01/03 00:33:24;;;;;;;16.73;4.55;;;28.80;73.40;;;;;;5063886;28;20036;-51
2022/01/03 00:35:59;;;;;;;19.52;4.85;;;28.80;73.30;;;;;;5063477;28;20015;-47
2022/01/03 00:38:28;;;;;;;19.10;4.30;;;28.80;73.20;;;;;;5063704;28;20301;-50
2022/01/03 00:40:55;;;;;;;14.85;4.47;;;28.80;73.10;;;;;;5063586;28;20063;-49
2022/01/03 00:43:22;;;;;;;16.13;4.22;;;28.80;73.10;;;;;;5063735;28;20463;-47
2022/01/03 00:45:53;;;;;;;18.60;4.30;;;28.80;73.00;;;;;;5063624;28;20020;-47
2022/01/03 00:48:20;;;;;;;13.75;6.45;;;28.80;72.90;;;;;;5063345;28;20025;-56
2022/01/03 00:50:47;;;;;;;31.67;16.17;;;28.80;72.70;;;;;;5055379;28;20028;-50
2022/01/03 00:53:14;;;;;;;34.83;16.52;;;28.80;72.70;;;;;;5055596;28;20029;-51
2022/01/03 00:56:02;;;;;;;31.88;18.33;;;28.80;72.70;;;;;;5060468;28;20124;-49
2022/01/03 00:58:37;;;;;;;33.60;16.88;;;28.70;72.50;;;;;;5060941;28;20051;-48
2022/01/03 01:01:06;;;;;;;27.45;14.05;;;28.80;72.50;;;;;;5054197;28;20059;-44
2022/01/03 01:03:38;;;;;;;24.15;11.93;;;28.70;72.20;;;;;;5043653;28;20191;-49
2022/01/03 01:06:08;;;;;;;23.75;11.27;;;28.70;72.10;;;;;;5051641;28;20059;-46
2022/01/03 01:08:38;;;;;;;20.65;9.93;;;28.70;72.00;;;;;;5054079;28;20029;-47
2022/01/03 01:11:08;;;;;;;23.02;9.10;;;28.70;71.80;;;;;;5056311;28;20021;-50
2022/01/03 01:13:36;;;;;;;16.58;8.35;;;28.70;71.50;;;;;;5063551;28;20092;-50
2022/01/03 01:16:09;;;;;;;15.15;7.13;;;28.70;71.40;;;;;;5063431;28;20021;-50
2022/01/03 01:18:37;;;;;;;23.23;6.05;;;28.70;71.80;;;;;;5064703;28;20095;-43
2022/01/03 01:21:05;;;;;;;11.38;5.35;;;28.70;71.10;;;;;;5067609;28;20059;-47
2022/01/03 01:23:32;;;;;;;9.88;5.43;;;28.70;70.90;;;;;;5067495;28;20096;-45
2022/01/03 01:28:46;;;;;;;12.93;4.85;;;28.60;70.50;;;;;;5067627;28;20066;-47
2022/01/03 01:31:17;;;;;;;14.18;4.97;;;28.60;70.40;;;;;;5067063;28;20146;-43
2022/01/03 01:33:45;;;;;;;27.30;5.55;;;28.60;70.20;;;;;;5066986;28;20039;-44
2022/01/03 01:36:14;;;;;;;17.48;5.25;;;28.60;70.10;;;;;;5049676;28;20025;-51
2022/01/03 01:38:43;;;;;;;17.17;4.50;;;28.60;69.80;;;;;;5067166;28;20048;-46
2022/01/03 01:41:10;;;;;;;19.77;4.50;;;28.60;69.50;;;;;;5066955;28;20021;-45
2022/01/03 01:43:39;;;;;;;20.98;4.97;;;28.60;69.40;;;;;;5049436;28;20017;-46
2022/01/03 01:46:14;;;;;;;15.27;4.38;;;28.50;69.40;;;;;;5066594;28;20356;-49
2022/01/03 01:48:44;;;;;;;28.05;4.20;;;28.50;69.10;;;;;;5067168;28;20093;-44
2022/01/03 01:51:13;;;;;;;20.58;3.90;;;28.50;68.70;;;;;;5058225;28;20013;-45
2022/01/03 01:53:52;;;;;;;156.68;17.02;;;28.50;69.20;;;;;;5050750;28;20018;-44
2022/01/03 01:56:26;;;;;;;36.17;6.07;;;28.50;68.30;;;;;;5049121;28;20021;-52
2022/01/03 01:58:58;;;;;;;37.88;5.40;;;28.50;68.10;;;;;;5066930;28;20088;-48
2022/01/03 02:01:39;;;;;;;17.95;4.95;;;28.50;67.80;;;;;;5066567;28;20017;-50
2022/01/03 02:04:23;;;;;;;30.83;4.00;;;28.40;67.60;;;;;;5055409;28;20031;-46
2022/01/03 02:06:54;;;;;;;21.90;4.03;;;28.40;67.40;;;;;;5050774;28;20048;-49
2022/01/03 02:09:38;;;;;;;18.23;4.00;;;28.40;67.40;;;;;;5056103;28;20218;-52
2022/01/03 02:12:12;;;;;;;10.73;3.28;;;28.40;67.20;;;;;;5057595;28;20024;-49
2022/01/03 02:14:39;;;;;;;16.27;3.33;;;28.40;66.90;;;;;;5055269;28;20026;-53
2022/01/03 02:17:06;;;;;;;9.57;2.92;;;28.30;66.50;;;;;;5053850;28;20029;-44
2022/01/03 02:19:37;;;;;;;14.88;3.55;;;28.30;66.40;;;;;;5062531;28;20028;-52
2022/01/03 02:22:04;;;;;;;11.32;2.92;;;28.30;66.30;;;;;;5052834;28;20081;-53
2022/01/03 02:24:32;;;;;;;9.45;3.45;;;28.30;65.90;;;;;;5049388;28;20033;-51
2022/01/03 02:27:02;;;;;;;11.52;2.80;;;28.30;65.80;;;;;;5046319;28;20064;-45
2022/01/03 02:29:28;;;;;;;6.25;2.60;;;28.30;65.60;;;;;;5045697;28;20222;-44
2022/01/03 02:31:55;;;;;;;11.00;3.13;;;28.30;65.30;;;;;;5045873;28;20049;-43
2022/01/03 02:34:23;;;;;;;8.05;3.40;;;28.30;65.30;;;;;;5046383;28;20031;-49
2022/01/03 02:36:51;;;;;;;8.55;3.55;;;28.30;65.10;;;;;;5045828;28;20037;-47
2022/01/03 02:39:18;;;;;;;8.40;3.25;;;28.20;65.00;;;;;;5045541;28;20033;-51
2022/01/03 02:41:47;;;;;;;9.13;3.22;;;28.20;64.70;;;;;;5046026;28;20018;-51
2022/01/03 02:44:18;;;;;;;9.75;3.00;;;28.30;64.50;;;;;;5045908;28;20025;-45
2022/01/03 02:46:45;;;;;;;7.28;3.25;;;28.20;64.40;;;;;;5045735;28;20198;-51
2022/01/03 02:49:11;;;;;;;9.45;3.10;;;28.20;64.00;;;;;;5046001;28;20068;-46
2022/01/03 02:51:38;;;;;;;6.95;2.42;;;28.20;64.40;;;;;;5045481;28;20249;-46
2022/01/03 02:54:04;;;;;;;8.30;2.60;;;28.20;63.50;;;;;;5045207;28;20033;-46
2022/01/03 02:56:33;;;;;;;7.05;2.92;;;28.10;63.30;;;;;;5054482;28;20032;-43
2022/01/03 02:59:00;;;;;;;6.03;2.25;;;28.10;63.20;;;;;;5057297;28;20052;-43
2022/01/03 03:01:27;;;;;;;7.22;2.10;;;28.10;63.10;;;;;;5065578;28;20355;-52
2022/01/03 03:03:53;;;;;;;6.63;2.30;;;28.10;62.90;;;;;;5065516;28;20374;-51
2022/01/03 03:06:20;;;;;;;5.05;1.95;;;28.10;62.80;;;;;;5065328;28;20213;-45
2022/01/03 03:08:47;;;;;;;9.23;2.10;;;28.10;62.70;;;;;;5065636;28;20021;-43
2022/01/03 03:11:13;;;;;;;4.75;2.20;;;28.10;62.60;;;;;;5065495;28;20232;-49
2022/01/03 03:13:40;;;;;;;5.18;1.77;;;28.00;62.40;;;;;;5047590;28;20217;-46
2022/01/03 03:16:07;;;;;;;4.95;2.10;;;28.00;62.20;;;;;;5065432;28;20013;-45
2022/01/03 03:18:34;;;;;;;3.60;1.92;;;28.00;62.30;;;;;;5065408;28;20052;-52
2022/01/03 03:21:00;;;;;;;5.40;2.10;;;28.00;62.10;;;;;;5065118;28;20032;-44
2022/01/03 03:23:27;;;;;;;4.47;1.85;;;28.00;62.00;;;;;;5059565;28;20028;-49
2022/01/03 03:25:54;;;;;;;5.32;1.88;;;28.00;61.80;;;;;;5065207;28;20016;-51
2022/01/03 03:28:24;;;;;;;3.70;1.70;;;28.00;61.70;;;;;;5065113;28;20032;-49
2022/01/03 03:30:52;;;;;;;4.00;1.65;;;27.90;61.50;;;;;;5060856;28;20028;-47
2022/01/03 03:33:22;;;;;;;4.88;2.22;;;27.90;61.50;;;;;;5056418;28;20048;-47
2022/01/03 03:35:52;;;;;;;4.47;1.73;;;27.90;61.10;;;;;;5050367;28;20017;-44
2022/01/03 03:38:23;;;;;;;6.32;1.83;;;27.90;61.10;;;;;;5050705;28;20325;-48
2022/01/03 03:40:50;;;;;;;5.35;1.67;;;27.90;61.00;;;;;;5054725;28;20116;-52
2022/01/03 03:43:17;;;;;;;6.53;2.08;;;27.80;60.80;;;;;;5064788;28;20035;-49
2022/01/03 03:45:45;;;;;;;5.78;2.03;;;27.80;60.70;;;;;;5064870;28;20036;-46
2022/01/03 03:48:12;;;;;;;3.15;1.60;;;27.80;60.60;;;;;;5064598;28;20044;-46
2022/01/03 03:50:39;;;;;;;4.55;1.60;;;27.80;60.60;;;;;;5061199;28;20017;-48
2022/01/03 03:53:06;;;;;;;5.18;1.90;;;27.80;60.30;;;;;;5053304;28;20971;-48
2022/01/03 03:55:33;;;;;;;5.05;1.80;;;27.80;60.20;;;;;;5055280;28;20013;-54
2022/01/03 03:58:00;;;;;;;4.82;1.83;;;27.80;60.10;;;;;;5054293;28;20040;-49
2022/01/03 04:00:28;;;;;;;6.72;1.73;;;27.80;60.20;;;;;;5047629;28;20082;-47
2022/01/03 04:02:55;;;;;;;4.57;1.80;;;27.80;59.90;;;;;;5044453;28;20029;-47
2022/01/03 04:05:21;;;;;;;13.70;1.80;;;27.70;59.70;;;;;;5044256;28;20059;-55
2022/01/03 04:07:48;;;;;;;6.20;1.90;;;27.70;59.50;;;;;;5044330;28;20210;-48
2022/01/03 04:10:18;;;;;;;10.77;2.10;;;27.70;59.60;;;;;;5044034;28;20022;-49
2022/01/03 04:12:45;;;;;;;5.55;1.80;;;27.70;59.70;;;;;;5042493;28;20073;-51
2022/01/03 04:15:13;;;;;;;5.60;1.67;;;27.70;59.60;;;;;;5043096;28;20081;-44
2022/01/03 04:17:40;;;;;;;6.93;1.83;;;27.70;59.50;;;;;;5042554;28;20033;-51
2022/01/03 04:20:08;;;;;;;6.78;2.17;;;27.70;59.70;;;;;;5042927;28;20021;-51
2022/01/03 04:22:35;;;;;;;5.93;1.58;;;27.70;59.40;;;;;;5042684;28;20071;-48
2022/01/03 04:25:01;;;;;;;6.45;2.20;;;27.70;59.50;;;;;;5043279;28;20051;-52
2022/01/03 04:27:28;;;;;;;9.90;1.90;;;27.70;59.50;;;;;;5043313;28;20025;-55
2022/01/03 04:29:54;;;;;;;4.43;1.98;;;27.70;59.60;;;;;;5043690;28;20092;-45
2022/01/03 04:32:21;;;;;;;5.88;1.65;;;27.70;59.60;;;;;;5043953;28;20091;-46
2022/01/03 04:34:47;;;;;;;3.97;1.80;;;27.70;59.70;;;;;;5044304;28;20097;-45
2022/01/03 04:37:14;;;;;;;5.00;1.60;;;27.70;59.60;;;;;;5045050;28;20242;-49
2022/01/03 04:39:41;;;;;;;5.93;2.17;;;27.70;59.80;;;;;;5053332;28;20029;-49
2022/01/03 04:42:08;;;;;;;9.32;1.60;;;27.70;59.80;;;;;;5054112;28;20017;-46
2022/01/03 04:44:35;;;;;;;7.30;1.98;;;27.70;60.00;;;;;;5053321;28;20021;-48
2022/01/03 04:47:02;;;;;;;10.10;2.30;;;27.70;60.00;;;;;;5046756;28;20033;-47
2022/01/03 04:49:28;;;;;;;6.22;2.22;;;27.60;60.10;;;;;;5044093;28;20030;-47
2022/01/03 04:51:55;;;;;;;5.80;1.75;;;27.60;60.30;;;;;;5044006;28;20021;-53
2022/01/03 04:54:21;;;;;;;9.50;2.08;;;27.60;60.40;;;;;;5044160;28;20029;-48
2022/01/03 04:56:48;;;;;;;6.70;1.70;;;27.60;60.70;;;;;;5043748;28;20017;-46
2022/01/03 04:59:15;;;;;;;4.28;2.05;;;27.60;60.80;;;;;;5044102;28;20021;-51
2022/01/03 05:01:41;;;;;;;4.00;1.98;;;27.50;60.90;;;;;;5043850;28;20029;-42
2022/01/03 05:04:08;;;;;;;8.45;2.28;;;27.50;60.80;;;;;;5043928;28;20233;-43
2022/01/03 05:06:34;;;;;;;9.70;2.20;;;27.50;60.70;;;;;;5043640;28;20021;-50
2022/01/03 05:09:01;;;;;;;6.07;2.10;;;27.50;60.70;;;;;;5043924;28;20351;-48
2022/01/03 05:11:27;;;;;;;4.40;1.98;;;27.50;60.50;;;;;;5043638;28;20022;-54
2022/01/03 05:13:54;;;;;;;6.07;2.08;;;27.50;60.50;;;;;;5043943;28;20017;-50
2022/01/03 05:16:20;;;;;;;4.60;2.10;;;27.40;60.50;;;;;;5043602;28;20041;-51
2022/01/03 05:18:47;;;;;;;3.00;1.63;;;27.40;60.50;;;;;;5043844;28;20044;-51
2022/01/03 05:21:15;;;;;;;6.00;1.90;;;27.40;60.50;;;;;;5043539;28;20316;-47
2022/01/03 05:23:42;;;;;;;4.70;2.00;;;27.40;60.40;;;;;;5043631;28;20029;-48
2022/01/03 05:26:09;;;;;;;6.10;1.90;;;27.40;60.40;;;;;;5043321;28;20013;-47
2022/01/03 05:28:36;;;;;;;3.25;1.95;;;27.30;60.30;;;;;;5043589;28;20029;-47
2022/01/03 05:31:03;;;;;;;7.38;2.00;;;27.30;60.00;;;;;;5043479;28;20237;-46
2022/01/03 05:33:30;;;;;;;8.27;2.03;;;27.30;60.00;;;;;;5043437;28;20036;-47
2022/01/03 05:35:56;;;;;;;5.53;1.95;;;27.30;60.00;;;;;;5043356;28;20025;-53
2022/01/03 05:38:23;;;;;;;4.65;1.90;;;27.30;59.90;;;;;;5043499;28;20022;-46
2022/01/03 05:40:49;;;;;;;4.47;1.90;;;27.20;59.90;;;;;;5043349;28;20025;-51
2022/01/03 05:43:16;;;;;;;4.40;1.83;;;27.20;59.80;;;;;;5043336;28;20202;-53
2022/01/03 05:45:42;;;;;;;5.10;1.90;;;27.20;59.70;;;;;;5043247;28;20032;-46
2022/01/03 05:48:09;;;;;;;5.80;1.90;;;27.20;59.50;;;;;;5043323;28;20059;-45
2022/01/03 05:50:36;;;;;;;5.10;1.88;;;27.20;59.30;;;;;;5043210;28;20025;-47
2022/01/03 05:53:02;;;;;;;3.97;1.75;;;27.20;59.50;;;;;;5043176;28;20017;-45
2022/01/03 05:55:29;;;;;;;3.67;1.60;;;27.20;59.10;;;;;;5043308;28;20220;-44
2022/01/03 05:57:56;;;;;;;6.88;1.85;;;27.20;59.20;;;;;;5043110;28;20020;-45
2022/01/03 06:00:24;;;;;;;4.97;1.90;;;27.20;59.20;;;;;;5043121;28;20033;-43
2022/01/03 06:02:57;;;;;;;5.47;1.60;;;27.20;59.50;;;;;;5043093;28;20029;-44
2022/01/03 06:05:43;;;;;;;3.15;1.80;;;27.10;59.60;;;;;;5045683;28;20033;-50
2022/01/03 06:08:09;;;;;;;6.38;1.90;;;27.10;59.30;;;;;;5046633;28;20097;-48
2022/01/03 06:10:41;;;;;;;5.13;2.00;;;27.10;59.30;;;;;;5046650;28;20266;-44
2022/01/03 06:13:08;;;;;;;3.67;1.67;;;27.10;59.30;;;;;;5046637;28;20083;-43
2022/01/03 06:15:38;;;;;;;3.20;1.60;;;27.00;59.30;;;;;;5046848;28;20299;-51
2022/01/03 06:18:06;;;;;;;4.78;1.70;;;27.00;59.40;;;;;;5046504;28;20274;-55
2022/01/03 06:20:33;;;;;;;3.83;1.92;;;27.00;59.70;;;;;;5046605;28;20059;-47
2022/01/03 06:23:00;;;;;;;3.55;1.75;;;27.00;59.70;;;;;;5046454;28;20137;-46
2022/01/03 06:25:26;;;;;;;3.72;1.90;;;27.00;59.90;;;;;;5046452;28;20080;-47
2022/01/03 06:27:53;;;;;;;5.15;1.77;;;27.00;60.10;;;;;;5046312;28;20029;-47
2022/01/03 06:30:19;;;;;;;2.78;1.40;;;27.00;60.00;;;;;;5046474;28;20029;-49
2022/01/03 06:32:46;;;;;;;3.25;1.65;;;27.00;60.10;;;;;;5046157;28;20059;-48
2022/01/03 06:35:13;;;;;;;5.10;1.67;;;26.90;59.90;;;;;;5046814;28;20025;-51
2022/01/03 06:37:41;;;;;;;3.28;1.77;;;26.90;59.80;;;;;;5046239;28;20049;-45
2022/01/03 06:40:08;;;;;;;4.82;1.50;;;26.90;59.80;;;;;;5046571;28;20018;-56
2022/01/03 06:42:35;;;;;;;2.50;1.55;;;26.90;59.80;;;;;;5046229;28;20029;-42
2022/01/03 06:45:02;;;;;;;2.67;1.70;;;26.90;59.80;;;;;;5046625;28;20043;-52
2022/01/03 06:47:29;;;;;;;3.75;1.60;;;26.90;59.80;;;;;;5045908;28;20025;-44
2022/01/03 06:49:55;;;;;;;6.20;1.70;;;26.90;60.30;;;;;;5046488;28;20105;-48
2022/01/03 06:52:22;;;;;;;3.15;1.80;;;26.90;59.80;;;;;;5045948;28;20021;-48
2022/01/03 06:54:49;;;;;;;2.63;1.90;;;26.90;59.70;;;;;;5046187;28;20032;-43
2022/01/03 06:57:15;;;;;;;2.20;1.60;;;26.90;59.60;;;;;;5045955;28;20036;-48
2022/01/03 06:59:42;;;;;;;2.75;1.50;;;26.90;59.60;;;;;;5046124;28;20025;-50
2022/01/03 07:02:09;;;;;;;3.08;1.60;;;26.90;59.40;;;;;;5045593;28;20248;-53
2022/01/03 07:04:36;;;;;;;5.68;1.60;;;26.90;59.20;;;;;;5045740;28;20028;-44
2022/01/03 07:07:03;;;;;;;4.75;1.73;;;26.90;59.30;;;;;;5045686;28;20096;-44
2022/01/03 07:09:29;;;;;;;3.60;1.60;;;26.80;59.30;;;;;;5045926;28;20302;-48
2022/01/03 07:11:56;;;;;;;3.65;1.70;;;26.80;59.20;;;;;;5045638;28;20140;-49
2022/01/03 07:19:40;;;;;;;4.22;1.58;;;26.70;58.80;;;;;;5045977;28;20028;-43
2022/01/03 07:22:10;;;;;;;2.60;1.33;;;26.70;58.60;;;;;;5045356;28;20032;-49
2022/01/03 07:24:38;;;;;;;3.05;1.40;;;26.80;58.70;;;;;;5045803;28;20329;-48
2022/01/03 07:27:07;;;;;;;3.92;1.40;;;26.70;58.50;;;;;;5045319;28;20036;-47
2022/01/03 07:29:35;;;;;;;3.25;1.60;;;26.70;58.40;;;;;;5045538;28;20045;-49
2022/01/03 07:32:01;;;;;;;5.22;1.60;;;26.70;58.10;;;;;;5044996;28;20234;-48
2022/01/03 07:34:29;;;;;;;4.70;1.70;;;26.70;57.90;;;;;;5045407;28;20025;-46
2022/01/03 07:36:55;;;;;;;2.55;1.42;;;26.60;57.90;;;;;;5044931;28;20028;-48
2022/01/03 07:39:22;;;;;;;3.67;1.52;;;26.60;57.90;;;;;;5045607;28;20092;-50
2022/01/03 07:41:48;;;;;;;14.85;1.83;;;26.60;57.80;;;;;;5045174;28;20028;-59
2022/01/03 07:44:16;;;;;;;3.95;1.70;;;26.60;57.50;;;;;;5045190;28;20021;-45
2022/01/03 07:46:42;;;;;;;5.13;1.58;;;26.60;57.30;;;;;;5044944;28;20029;-52
2022/01/03 07:49:09;;;;;;;2.97;1.45;;;26.60;57.20;;;;;;5045243;28;20022;-51
2022/01/03 07:51:35;;;;;;;3.15;1.55;;;26.60;56.90;;;;;;5044711;28;20205;-49
2022/01/03 07:54:03;;;;;;;3.05;1.13;;;26.60;57.00;;;;;;5044948;28;20025;-46
2022/01/03 07:56:31;;;;;;;5.45;1.50;;;26.60;57.20;;;;;;5044851;28;20021;-51
2022/01/03 07:58:58;;;;;;;3.00;1.50;;;26.60;57.00;;;;;;5044885;28;20021;-48
2022/01/03 08:01:24;;;;;;;2.38;1.27;;;26.50;57.00;;;;;;5044729;28;20029;-43
2022/01/03 08:03:51;;;;;;;2.65;1.33;;;26.50;57.00;;;;;;5044753;28;20199;-45
2022/01/03 08:06:20;;;;;;;3.08;1.30;;;26.50;57.00;;;;;;5044369;28;20067;-47
2022/01/03 08:08:46;;;;;;;3.08;1.50;;;26.50;56.80;;;;;;5044639;28;20097;-49
2022/01/03 08:11:13;;;;;;;2.92;1.52;;;26.50;57.00;;;;;;5044551;28;20041;-48
2022/01/03 08:13:40;;;;;;;2.53;1.30;;;26.50;56.80;;;;;;5044596;28;20033;-51
2022/01/03 08:16:06;;;;;;;3.10;1.50;;;26.50;56.90;;;;;;5044475;28;20018;-43
2022/01/03 08:18:33;;;;;;;3.70;1.40;;;26.50;57.00;;;;;;5044506;28;20029;-48
2022/01/03 08:21:00;;;;;;;3.17;1.50;;;26.50;57.00;;;;;;5044151;28;20022;-53
2022/01/03 08:23:26;;;;;;;7.93;1.60;;;26.50;57.00;;;;;;5044526;28;20088;-42
2022/01/03 08:25:53;;;;;;;5.13;1.55;;;26.40;56.80;;;;;;5044264;28;20026;-47
2022/01/03 08:28:19;;;;;;;3.28;1.40;;;26.50;56.90;;;;;;5043903;28;20048;-52
2022/01/03 08:30:46;;;;;;;3.55;1.40;;;26.40;56.60;;;;;;5044316;28;20083;-47
2022/01/03 08:33:13;;;;;;;2.58;1.48;;;26.40;56.60;;;;;;5044061;28;20383;-49
2022/01/03 08:35:39;;;;;;;4.55;1.42;;;26.40;56.60;;;;;;5044077;28;20018;-57
2022/01/03 08:38:06;;;;;;;3.92;1.40;;;26.40;56.50;;;;;;5044074;28;20029;-49
2022/01/03 08:40:33;;;;;;;2.75;1.50;;;26.40;56.50;;;;;;5043978;28;20136;-46
2022/01/03 08:43:00;;;;;;;4.72;1.50;;;26.40;56.60;;;;;;5043870;28;20045;-52
2022/01/03 08:45:27;;;;;;;6.53;1.50;;;26.40;56.50;;;;;;5044265;28;20080;-46
2022/01/03 08:47:53;;;;;;;2.85;1.52;;;26.40;56.60;;;;;;5043926;28;20067;-53
2022/01/03 08:50:20;;;;;;;5.03;1.80;;;26.40;56.70;;;;;;5043807;28;20018;-42
2022/01/03 08:52:48;;;;;;;7.13;1.70;;;26.40;56.70;;;;;;5043884;28;20040;-52
2022/01/03 08:55:15;;;;;;;3.42;1.40;;;26.40;56.90;;;;;;5044305;28;20026;-50
2022/01/03 08:57:42;;;;;;;3.17;1.67;;;26.40;57.10;;;;;;5043878;28;20033;-49
2022/01/03 09:00:10;;;;;;;3.42;1.65;;;26.30;57.30;;;;;;5044260;28;20028;-46
2022/01/03 09:02:37;;;;;;;3.33;1.52;;;26.30;57.40;;;;;;5043821;28;20067;-48
2022/01/03 09:05:03;;;;;;;3.47;1.45;;;26.30;57.70;;;;;;5044216;28;20025;-45
2022/01/03 09:07:30;;;;;;;4.50;1.70;;;26.30;57.90;;;;;;5043522;28;20033;-47
2022/01/03 09:09:56;;;;;;;2.05;1.45;;;26.30;57.90;;;;;;5044091;28;20021;-49
2022/01/03 09:12:23;;;;;;;4.75;1.90;;;26.30;57.90;;;;;;5043705;28;20360;-48
2022/01/03 09:14:50;;;;;;;4.57;1.40;;;26.30;58.10;;;;;;5043973;28;20026;-50
2022/01/03 09:17:16;;;;;;;4.50;1.70;;;26.30;58.20;;;;;;5043492;28;20257;-45
2022/01/03 09:19:43;;;;;;;2.95;1.55;;;26.20;58.10;;;;;;5043947;28;20021;-46
2022/01/03 09:22:20;;;;;;;4.38;2.05;;;26.30;58.30;;;;;;5043478;28;20072;-45
2022/01/03 09:30:20;;;;;;;4.05;1.70;;;26.20;58.30;;;;;;5043563;28;20036;-45
2022/01/03 09:32:46;;;;;;;3.47;1.60;;;26.20;58.20;;;;;;5043177;28;20057;-49
2022/01/03 09:35:13;;;;;;;4.32;1.58;;;26.20;58.20;;;;;;5043433;28;20085;-50
2022/01/03 09:37:40;;;;;;;2.15;1.40;;;26.20;58.20;;;;;;5043704;28;20088;-45
2022/01/03 09:40:07;;;;;;;4.57;1.33;;;26.20;57.90;;;;;;5045884;28;20032;-47
2022/01/03 09:42:35;;;;;;;3.75;1.60;;;26.20;57.90;;;;;;5047386;28;20332;-49
2022/01/03 09:45:07;;;;;;;2.50;1.30;;;26.10;57.70;;;;;;5047798;28;20030;-51
2022/01/03 09:47:37;;;;;;;3.38;1.40;;;26.20;57.40;;;;;;5047218;28;20049;-47
2022/01/03 09:50:04;;;;;;;2.03;1.15;;;26.20;57.40;;;;;;5047711;28;20048;-46
2022/01/03 09:52:31;;;;;;;4.45;1.70;;;26.10;57.40;;;;;;5046939;28;20021;-46
2022/01/03 09:55:00;;;;;;;3.65;1.50;;;26.10;57.30;;;;;;5047396;28;20029;-54
2022/01/03 09:57:28;;;;;;;2.63;1.42;;;26.10;57.10;;;;;;5046975;28;20380;-44
2022/01/03 09:59:55;;;;;;;4.68;1.50;;;26.10;57.10;;;;;;5047243;28;20107;-51
2022/01/03 10:02:22;;;;;;;4.15;1.52;;;26.10;57.00;;;;;;5046928;28;20029;-48
2022/01/03 10:04:48;;;;;;;4.13;1.58;;;26.10;56.90;;;;;;5047404;28;20075;-43
2022/01/03 10:07:17;;;;;;;2.05;1.40;;;26.10;56.80;;;;;;5046586;28;20248;-50
2022/01/03 10:09:44;;;;;;;3.17;1.38;;;26.10;56.50;;;;;;5047158;28;20036;-43
2022/01/03 10:12:14;;;;;;;2.92;1.35;;;26.10;56.40;;;;;;5046678;28;20013;-50
2022/01/03 10:14:42;;;;;;;5.53;1.38;;;26.10;56.30;;;;;;5046868;28;20048;-51
2022/01/03 10:17:09;;;;;;;3.67;1.38;;;26.00;56.10;;;;;;5046637;28;20310;-53
2022/01/03 10:20:02;;;;;;;7.70;1.30;;;26.00;56.20;;;;;;5047047;28;20298;-47
2022/01/03 10:22:31;;;;;;;11.40;1.67;;;26.00;56.30;;;;;;5046626;28;20071;-48
2022/01/03 10:25:00;;;;;;;4.70;1.48;;;26.00;56.60;;;;;;5047028;28;20037;-54
2022/01/03 10:27:46;;;;;;;4.80;1.42;;;26.00;56.70;;;;;;5046269;28;20037;-44
2022/01/03 10:30:13;;;;;;;4.28;1.50;;;26.00;56.60;;;;;;5046912;28;20029;-46
2022/01/03 10:32:40;;;;;;;8.93;1.23;;;26.00;56.70;;;;;;5046212;28;20050;-49
2022/01/03 10:35:18;;;;;;;5.43;1.55;;;26.00;56.70;;;;;;5046787;28;20030;-45
2022/01/03 10:37:44;;;;;;;2.85;1.40;;;26.00;56.50;;;;;;5046277;28;20021;-46
2022/01/03 10:40:19;;;;;;;7.28;1.75;;;26.00;56.60;;;;;;5046808;28;20072;-45
2022/01/03 10:42:46;;;;;;;10.07;2.17;;;25.90;56.60;;;;;;5046145;28;20018;-44
2022/01/03 10:45:13;;;;;;;13.85;1.98;;;26.00;56.70;;;;;;5046570;28;20210;-51
2022/01/03 10:47:43;;;;;;;5.82;1.83;;;25.90;56.80;;;;;;5046303;28;20036;-47
2022/01/03 10:50:14;;;;;;;8.68;1.88;;;25.90;56.90;;;;;;5046300;28;20232;-48
2022/01/03 10:52:41;;;;;;;6.65;2.10;;;25.90;57.00;;;;;;5045844;28;20036;-50
2022/01/03 10:55:34;;;;;;;9.02;2.10;;;25.90;57.30;;;;;;5046466;28;20202;-49
2022/01/03 10:58:08;;;;;;;10.65;2.55;;;25.90;57.50;;;;;;5043852;28;20261;-48
2022/01/03 11:00:41;;;;;;;8.93;2.13;;;25.90;57.80;;;;;;5045597;28;20026;-46
2022/01/03 11:03:30;;;;;;;11.57;2.30;;;25.80;57.90;;;;;;5045727;28;20336;-45
2022/01/03 11:11:42;;;;;;;8.88;2.00;;;25.80;58.50;;;;;;5045596;28;20024;-49
2022/01/03 11:14:10;;;;;;;9.90;2.28;;;25.80;58.80;;;;;;5045715;28;20033;-50
2022/01/03 11:16:40;;;;;;;8.00;2.38;;;25.80;59.10;;;;;;5045425;28;20017;-48
2022/01/03 11:19:07;;;;;;;13.55;2.30;;;25.80;59.20;;;;;;5045238;28;20096;-45
2022/01/03 11:21:44;;;;;;;10.13;2.33;;;25.80;59.40;;;;;;5045390;28;20021;-52
2022/01/03 11:24:13;;;;;;;29.08;3.35;;;25.80;59.70;;;;;;5045473;28;20241;-46
2022/01/03 11:26:48;;;;;;;18.13;2.80;;;25.70;60.10;;;;;;5045194;28;20056;-43
2022/01/03 11:29:16;;;;;;;15.13;2.80;;;25.70;60.10;;;;;;5045418;28;20112;-46
2022/01/03 11:31:42;;;;;;;11.02;2.50;;;25.70;60.40;;;;;;5043823;28;20334;-56
2022/01/03 11:34:12;;;;;;;10.77;2.72;;;25.70;60.50;;;;;;5043810;28;20355;-51
2022/01/03 11:36:39;;;;;;;13.00;2.75;;;25.70;60.80;;;;;;5043343;28;20013;-49
2022/01/03 11:39:12;;;;;;;8.52;2.75;;;25.70;61.00;;;;;;5043562;28;20025;-46
2022/01/03 11:41:41;;;;;;;7.60;2.35;;;25.70;61.20;;;;;;5043511;28;20040;-53
2022/01/03 11:44:12;;;;;;;11.07;2.70;;;25.70;61.30;;;;;;5043352;28;20021;-45
2022/01/03 11:46:46;;;;;;;15.13;2.20;;;25.70;61.80;;;;;;5044174;28;20043;-50
2022/01/03 11:49:13;;;;;;;23.65;3.10;;;25.80;61.90;;;;;;5045176;28;20017;-46
2022/01/03 11:51:42;;;;;;;24.65;3.42;;;25.80;62.00;;;;;;5044664;28;20025;-45
2022/01/03 11:54:09;;;;;;;14.20;2.55;;;25.80;62.30;;;;;;5045010;28;20017;-51
2022/01/03 11:56:42;;;;;;;11.20;3.13;;;25.80;62.50;;;;;;5044758;28;20024;-51
2022/01/03 12:04:34;;;;;;;21.42;2.90;;;25.80;63.00;;;;;;5044701;28;20024;-48
2022/01/03 12:07:09;;;;;;;37.00;3.60;;;25.80;63.10;;;;;;5044404;28;20021;-47
2022/01/03 12:09:47;;;;;;;25.13;3.00;;;25.80;63.10;;;;;;5044818;28;20037;-45
2022/01/03 12:12:34;;;;;;;15.65;2.90;;;25.90;63.70;;;;;;5044405;28;20084;-46
2022/01/03 12:15:03;;;;;;;21.67;3.17;;;25.90;63.30;;;;;;5044792;28;20040;-50
2022/01/03 12:17:49;;;;;;;14.55;3.08;;;25.90;63.10;;;;;;5044062;28;20029;-44
2022/01/03 12:20:16;;;;;;;13.95;2.42;;;25.90;63.00;;;;;;5044764;28;20242;-55
2022/01/03 12:22:48;;;;;;;17.85;2.50;;;25.90;63.10;;;;;;5044325;28;20032;-52
2022/01/03 12:25:26;;;;;;;21.75;3.58;;;26.00;63.00;;;;;;5044567;28;20025;-49
2022/01/03 12:28:04;;;;;;;16.17;2.85;;;26.00;62.90;;;;;;5044144;28;20017;-49
2022/01/03 12:30:56;;;;;;;17.65;2.90;;;26.00;62.90;;;;;;5044269;28;20022;-43
2022/01/03 12:33:24;;;;;;;10.20;2.63;;;26.00;62.70;;;;;;5044037;28;20049;-53
2022/01/03 12:36:11;;;;;;;16.17;2.10;;;26.00;62.50;;;;;;5043938;28;20022;-44
2022/01/03 12:38:37;;;;;;;13.60;2.17;;;26.00;62.40;;;;;;5044182;28;20072;-50
2022/01/03 12:41:04;;;;;;;11.60;2.28;;;26.10;62.40;;;;;;5043923;28;20047;-45
2022/01/03 12:43:40;;;;;;;10.20;2.08;;;26.10;62.30;;;;;;5044069;28;20408;-45
2022/01/03 12:46:15;;;;;;;9.20;2.17;;;26.10;62.40;;;;;;5043844;28;20021;-49
2022/01/03 12:48:42;;;;;;;8.43;2.20;;;26.10;62.50;;;;;;5043708;28;20029;-50
2022/01/03 12:51:12;;;;;;;8.90;2.00;;;26.10;62.50;;;;;;5043849;28;20059;-56
2022/01/03 12:53:45;;;;;;;8.15;2.10;;;26.10;62.40;;;;;;5043785;28;20056;-53
2022/01/03 12:56:21;;;;;;;7.03;2.03;;;26.10;62.50;;;;;;5043661;28;20021;-43
2022/01/03 12:58:52;;;;;;;6.78;2.03;;;26.20;62.60;;;;;;5043719;28;20206;-48
2022/01/03 13:01:19;;;;;;;6.47;2.05;;;26.20;62.80;;;;;;5043834;28;20055;-47
2022/01/03 13:03:49;;;;;;;13.85;2.35;;;26.20;62.70;;;;;;5043823;28;20033;-48
2022/01/03 13:06:33;;;;;;;13.55;2.42;;;26.20;63.00;;;;;;5043452;28;20013;-49
2022/01/03 13:09:06;;;;;;;10.82;1.95;;;26.20;62.90;;;;;;5043783;28;20036;-49
2022/01/03 13:11:34;;;;;;;8.77;2.10;;;26.20;62.90;;;;;;5043537;28;20187;-48
2022/01/03 13:14:06;;;;;;;9.77;2.53;;;26.20;62.60;;;;;;5044050;28;20021;-48
2022/01/03 13:16:35;;;;;;;9.93;1.88;;;26.20;62.60;;;;;;5047849;28;20325;-52